createdAt,value
2022-11-24T00:01:31.548Z,88.60
2022-11-24T00:06:36.442Z,88.55
2022-11-24T00:11:39.748Z,88.55
2022-11-24T00:16:43.028Z,88.51
2022-11-24T00:21:46.332Z,88.42
2022-11-24T00:26:49.552Z,88.29
2022-11-24T00:31:52.810Z,88.32
2022-11-24T00:36:55.985Z,87.87
2022-11-24T00:41:59.169Z,87.87
2022-11-24T00:47:02.535Z,87.96
2022-11-24T00:52:05.920Z,88.04
2022-11-24T00:57:09.158Z,88.07
2022-11-24T01:02:12.447Z,87.99
2022-11-24T01:07:15.769Z,87.88
2022-11-24T01:12:19.046Z,87.89
2022-11-24T01:17:22.334Z,87.91
2022-11-24T01:22:27.670Z,87.83
2022-11-24T01:27:30.877Z,87.72
2022-11-24T01:32:36.491Z,87.79
2022-11-24T01:37:39.744Z,87.78
2022-11-24T01:42:52.353Z,87.74
2022-11-24T01:47:56.395Z,87.57
2022-11-24T01:53:00.145Z,87.31
2022-11-24T01:58:17.663Z,87.17
2022-11-24T02:03:31.475Z,87.18
2022-11-24T02:09:33.013Z,87.38
2022-11-24T02:14:39.594Z,87.42
2022-11-24T02:19:58.747Z,87.46
2022-11-24T02:25:12.136Z,87.62
2022-11-24T02:30:16.351Z,87.54
2022-11-24T02:35:20.445Z,87.57
2022-11-24T02:40:28.903Z,87.51
2022-11-24T02:45:32.251Z,87.49
2022-11-24T02:50:35.503Z,87.45
2022-11-24T02:55:38.730Z,87.33
2022-11-24T03:00:42.222Z,87.37
2022-11-24T03:05:45.612Z,87.03
2022-11-24T03:10:49.529Z,87.08
2022-11-24T03:15:52.805Z,87.30
2022-11-24T03:21:00.381Z,87.32
2022-11-24T03:26:11.876Z,87.25
2022-11-24T03:31:15.456Z,87.33
2022-11-24T03:36:19.536Z,87.29
2022-11-24T03:41:22.731Z,87.26
2022-11-24T03:46:25.986Z,87.18
2022-11-24T03:51:29.269Z,87.17
2022-11-24T03:56:32.447Z,87.34
2022-11-24T04:01:35.722Z,87.38
2022-11-24T04:06:40.709Z,87.38
2022-11-24T04:12:02.826Z,87.26
2022-11-24T04:17:06.003Z,87.32
2022-11-24T04:22:09.355Z,87.36
2022-11-24T04:27:12.787Z,87.38
2022-11-24T04:32:15.983Z,87.38
2022-11-24T04:37:19.655Z,87.53
2022-11-24T04:42:22.989Z,87.48
2022-11-24T04:47:27.372Z,87.61
2022-11-24T04:52:30.651Z,87.85
2022-11-24T04:57:33.882Z,88.18
2022-11-24T05:02:37.283Z,88.34
2022-11-24T05:07:40.565Z,88.60
2022-11-24T05:12:48.425Z,88.49
2022-11-24T05:17:54.792Z,88.29
2022-11-24T05:23:03.337Z,88.11
2022-11-24T05:28:12.129Z,88.09
2022-11-24T05:33:23.197Z,88.11
2022-11-24T05:38:27.121Z,88.09
2022-11-24T05:43:30.748Z,87.79
2022-11-24T05:48:33.882Z,87.79
2022-11-24T05:53:36.855Z,87.83
2022-11-24T05:58:39.757Z,87.88
2022-11-24T06:03:42.662Z,87.67
2022-11-24T06:08:45.596Z,87.60
2022-11-24T06:13:48.827Z,87.59
2022-11-24T06:18:51.980Z,87.51
2022-11-24T06:23:55.033Z,87.51
2022-11-24T06:28:57.975Z,87.23
2022-11-24T06:34:01.370Z,87.18
2022-11-24T06:39:06.277Z,87.15
2022-11-24T06:44:09.414Z,87.10
2022-11-24T06:49:12.451Z,87.38
2022-11-24T06:54:21.396Z,87.38
2022-11-24T06:59:24.887Z,87.17
2022-11-24T07:04:27.901Z,87.25
2022-11-24T07:09:30.806Z,87.41
2022-11-24T07:14:34.025Z,87.51
2022-11-24T07:19:37.154Z,87.52
2022-11-24T07:24:40.120Z,87.50
2022-11-24T07:29:43.245Z,87.68
2022-11-24T07:34:46.257Z,87.76
2022-11-24T07:39:49.195Z,87.67
2022-11-24T07:44:52.344Z,87.58
2022-11-24T07:49:55.429Z,87.35
2022-11-24T07:54:58.447Z,87.38
2022-11-24T08:00:01.546Z,87.41
2022-11-24T08:05:06.226Z,86.82
2022-11-24T08:10:09.555Z,87.19
2022-11-24T08:15:12.721Z,87.25
2022-11-24T08:20:15.926Z,87.18
2022-11-24T08:25:20.222Z,87.03
2022-11-24T08:30:23.814Z,86.82
2022-11-24T08:35:28.818Z,86.73
2022-11-24T08:40:33.301Z,86.39
2022-11-24T08:45:41.373Z,86.75
2022-11-24T08:50:45.511Z,86.57
2022-11-24T08:55:48.995Z,86.58
2022-11-24T09:00:52.164Z,86.77
2022-11-24T09:05:55.083Z,86.46
2022-11-24T09:11:06.982Z,86.69
2022-11-24T09:16:14.411Z,86.52
2022-11-24T09:21:23.482Z,86.80
2022-11-24T09:26:31.128Z,86.88
2022-11-24T09:31:37.422Z,86.67
2022-11-24T09:36:40.681Z,86.64
2022-11-24T09:41:58.566Z,86.57
2022-11-24T09:47:36.287Z,86.08
2022-11-24T09:53:16.982Z,86.31
2022-11-24T09:58:29.193Z,86.32
2022-11-24T10:03:37.357Z,86.09
2022-11-24T10:09:00.214Z,85.58
2022-11-24T10:14:26.493Z,85.28
2022-11-24T10:20:12.807Z,84.97
2022-11-24T10:25:25.038Z,85.58
2022-11-24T10:30:28.329Z,85.13
2022-11-24T10:35:41.726Z,85.40
2022-11-24T10:40:58.657Z,85.07
2022-11-24T10:46:22.117Z,85.26
2022-11-24T10:51:57.114Z,85.39
2022-11-24T10:57:00.035Z,85.27
2022-11-24T11:02:34.746Z,85.22
2022-11-24T11:07:37.942Z,84.64
2022-11-24T11:12:45.063Z,84.82
2022-11-24T11:17:52.539Z,84.99
2022-11-24T11:22:58.658Z,85.07
2022-11-24T11:28:30.185Z,84.82
2022-11-24T11:39:00.164Z,85.13
2022-11-24T11:44:21.395Z,84.76
2022-11-24T11:49:25.031Z,85.05
2022-11-24T11:55:14.225Z,84.93
2022-11-24T12:00:22.418Z,84.89
2022-11-24T12:06:01.865Z,85.20
2022-11-24T12:11:27.021Z,85.28
2022-11-24T12:17:14.785Z,85.36
2022-11-24T12:22:33.079Z,85.57
2022-11-24T12:28:46.912Z,85.46
2022-11-24T12:34:25.629Z,85.69
2022-11-24T12:40:01.836Z,85.76
2022-11-24T12:45:15.271Z,85.79
2022-11-24T12:50:22.489Z,85.60
2022-11-24T12:55:27.811Z,85.46
2022-11-24T13:00:39.413Z,85.57
2022-11-24T13:06:03.705Z,85.67
2022-11-24T13:11:21.941Z,85.74
2022-11-24T13:16:36.287Z,85.75
2022-11-24T13:21:45.614Z,85.83
2022-11-24T13:26:49.977Z,85.92
2022-11-24T13:31:55.319Z,85.94
2022-11-24T13:36:58.659Z,85.92
2022-11-24T13:42:41.855Z,85.86
2022-11-24T13:47:47.330Z,85.81
2022-11-24T13:53:15.751Z,85.99
2022-11-24T13:58:29.874Z,86.32
2022-11-24T14:04:30.433Z,86.54
2022-11-24T14:09:51.991Z,86.67
2022-11-24T14:15:23.882Z,86.50
2022-11-24T14:20:28.784Z,86.89
2022-11-24T14:25:32.607Z,87.16
2022-11-24T14:30:35.747Z,87.49
2022-11-24T14:35:46.189Z,87.32
2022-11-24T14:40:53.543Z,87.22
2022-11-24T14:46:07.347Z,87.11
2022-11-24T14:51:30.663Z,87.18
2022-11-24T14:56:38.296Z,87.44
2022-11-24T15:01:41.348Z,87.17
2022-11-24T15:06:49.673Z,87.14
2022-11-24T15:11:55.302Z,87.00
2022-11-24T15:17:01.019Z,87.07
2022-11-24T15:22:27.526Z,87.35
2022-11-24T15:27:30.753Z,87.49
2022-11-24T15:32:33.771Z,87.37
2022-11-24T15:37:36.771Z,87.35
2022-11-24T15:42:40.585Z,87.28
2022-11-24T15:47:43.580Z,87.11
2022-11-24T15:52:48.881Z,87.08
2022-11-24T15:57:51.759Z,87.17
2022-11-24T16:02:54.702Z,87.25
2022-11-24T16:07:57.722Z,87.36
2022-11-24T16:13:00.719Z,87.58
2022-11-24T16:18:05.755Z,87.57
2022-11-24T16:23:08.711Z,87.63
2022-11-24T16:28:11.611Z,87.52
2022-11-24T16:33:14.510Z,87.38
2022-11-24T16:38:20.163Z,87.34
2022-11-24T16:43:24.628Z,87.26
2022-11-24T16:48:27.916Z,87.19
2022-11-24T16:53:31.070Z,87.28
2022-11-24T16:58:37.933Z,87.24
2022-11-24T17:03:42.074Z,87.21
2022-11-24T17:08:47.064Z,87.31
2022-11-24T17:13:50.805Z,87.35
2022-11-24T17:18:54.871Z,87.56
2022-11-24T17:24:01.281Z,88.09
2022-11-24T17:29:04.475Z,87.93
2022-11-24T17:34:10.994Z,88.36
2022-11-24T17:39:14.073Z,88.93
2022-11-24T17:44:17.094Z,88.90
2022-11-24T17:49:21.277Z,88.88
2022-11-24T17:54:45.304Z,88.96
2022-11-24T17:59:47.449Z,89.12
2022-11-24T18:04:50.964Z,89.60
2022-11-24T18:09:53.984Z,89.58
2022-11-24T18:14:57.026Z,89.45
2022-11-24T18:19:59.943Z,88.89
2022-11-24T18:25:02.865Z,88.61
2022-11-24T18:30:07.015Z,88.61
2022-11-24T18:35:10.513Z,88.46
2022-11-24T18:40:13.628Z,88.35
2022-11-24T18:45:16.518Z,88.15
2022-11-24T18:50:19.840Z,88.06
2022-11-24T18:55:22.814Z,87.98
2022-11-24T19:00:25.737Z,87.89
2022-11-24T19:05:28.815Z,88.07
2022-11-24T19:10:39.360Z,88.12
2022-11-24T19:15:42.246Z,88.54
2022-11-24T19:20:45.473Z,88.61
2022-11-24T19:25:48.416Z,88.85
2022-11-24T19:30:51.643Z,89.07
2022-11-24T19:36:08.073Z,89.28
2022-11-24T19:41:14.340Z,88.99
2022-11-24T19:46:19.443Z,88.79
2022-11-24T19:51:26.751Z,88.46
2022-11-24T19:56:34.349Z,88.33
2022-11-24T20:01:40.533Z,88.54
2022-11-24T20:06:46.994Z,88.36
2022-11-24T20:11:50.057Z,88.30
2022-11-24T20:16:53.131Z,88.25
2022-11-24T20:21:56.118Z,88.40
2022-11-24T20:27:00.286Z,88.43
2022-11-24T20:32:03.327Z,88.46
2022-11-24T20:37:13.314Z,88.45
2022-11-24T20:42:16.306Z,88.64
2022-11-24T20:47:19.273Z,88.40
2022-11-24T20:52:22.258Z,88.39
2022-11-24T20:57:25.215Z,88.15
2022-11-24T21:02:28.257Z,88.14
2022-11-24T21:07:31.409Z,88.46
2022-11-24T21:12:34.351Z,88.79
2022-11-24T21:17:37.224Z,88.67
2022-11-24T21:22:40.870Z,88.51
2022-11-24T21:27:43.757Z,88.67
2022-11-24T21:32:46.805Z,89.11
2022-11-24T21:37:49.755Z,88.99
2022-11-24T21:42:52.802Z,89.10
2022-11-24T21:48:05.322Z,89.00
2022-11-24T21:53:09.670Z,88.77
2022-11-24T21:58:12.614Z,88.64
2022-11-24T22:03:15.831Z,88.52
2022-11-24T22:08:18.828Z,88.50
2022-11-24T22:13:21.774Z,88.46
2022-11-24T22:18:24.633Z,88.31
2022-11-24T22:23:27.507Z,88.31
2022-11-24T22:28:33.264Z,88.32
2022-11-24T22:33:36.385Z,88.28
2022-11-24T22:38:40.201Z,88.08
2022-11-24T22:43:45.421Z,87.64
2022-11-24T22:48:50.358Z,87.87
2022-11-24T22:54:00.271Z,88.20
2022-11-24T22:59:04.757Z,87.69
2022-11-24T23:04:07.870Z,87.75
2022-11-24T23:09:12.123Z,88.00
2022-11-24T23:14:16.153Z,88.21
2022-11-24T23:19:19.324Z,88.07
2022-11-24T23:24:22.289Z,88.06
2022-11-24T23:29:25.370Z,88.07
2022-11-24T23:34:28.338Z,88.35
2022-11-24T23:39:31.313Z,88.29
2022-11-24T23:44:34.438Z,88.35
2022-11-24T23:49:38.170Z,88.25
2022-11-24T23:54:41.066Z,88.59
2022-11-24T23:59:44.064Z,89.70
